Terminal Aerodrome Forecast
Issued by NWS Bismarck, ND

Home | Current Version | Previous Version | Text Only | Print | Product List | Glossary On
Versions: 1 2 3 4 5 6 7 8 9 10 11 12 13
000
FTUS43 KBIS 271720
TAFISN
TAF
KISN 271720Z 2718/2818 21013KT P6SM FEW110 SCT200
     FM272000 26015G23KT P6SM SCT200
     FM272300 30018G26KT P6SM VCTS BKN110CB
     FM280400 33013KT P6SM BKN140
     FM280700 32009KT P6SM SCT250=

USA.gov is the U.S. government's official web portal to all federal, state and local government web resources and services.